Baltimore/Washington International Thurgood Marshal Airport
KBWI : rendu visible

Aérodrome :











RETROUVEZ-NOUS SUR...

 
LOGIN :

S'inscrire | Disclaimer

   EN    FR    IT 

 









Légende :    VFR   VFR Marginal   IFR   IFR Intensif   IFR Très Intensif
Visi : 
Plafond : 
>= 8 km
>= 3000ft
5 à 8 km
1000 à 3000 ft
1500m à 5 km
500 à 1000 ft
800 à 1500m
200 à 500 ft
< 800m
< 200 ft
Symboles :   Orages  Brouillard  Fortes neiges  Fortes précipitations  Vent > 20 kt






- Altitude de l'aérodrome : 146 ft
- Code IATA : BWI


KBWI - Baltimore/Washington International Thurgood Marshal

DERNIER METAR :
  • 312054Z 30014KT 10SM SCT080 24/04 A3008 RMK AO2 WSHFT 1959 SLP184 T02440044 56008

METARs EXPIRÉS :
  • 312014Z 26015G21KT 10SM SCT080 24/05 A3008 RMK AO2 WSHFT 1959 T02390050
  • 311954Z 34010KT 10SM BKN080 23/04 A3009 RMK AO2 SLP188 T02330044
  • 311854Z 32014KT 10SM SCT075 23/04 A3009 RMK AO2 SLP188 T02330039

TAF KBWI
Valide du 31 à 21h jusqu'au 02 à 00h UTC


312050Z 3121/0124 32011KT P6SM FEW070
FM010200 35008KT P6SM SKC
FM011000 32004KT P6SM FEW250
FM011800 29009KT P6SM FEW070
FIR KZDC / Amérique du Nord



MET'MAP, la Météo Aéronautique d'un coup d'oeil ! - Copyright ORBIFLY Décembre 2007 - Disclaimer

ORBIFLY MET'MAP TEAM :

Programmation & Développement : Alexandra Zaïnal
Sur une idée originale de : Baudouin d'Aumeries
Assistance à la programmation : Marc-Olivier Méhu
Soutien technique & logistique : Manuel Goepfert

Contact : metmap@orbifly.com




SOURCES & CREDITS :

   NOAA       Earth
Advisory